sensor_id;sensor_type;location;lat;lon;timestamp;pressure;altitude;pressure_sealevel;temperature;humidity
61359;BME280;47228;46.762;23.598;2022-07-29T00:01:40;97422.02;;;20.62;65.63
61359;BME280;47228;46.762;23.598;2022-07-29T00:04:08;97420.16;;;20.60;65.37
61359;BME280;47228;46.762;23.598;2022-07-29T00:06:37;97419.84;;;20.59;65.23
61359;BME280;47228;46.762;23.598;2022-07-29T00:09:05;97415.20;;;20.58;65.32
61359;BME280;47228;46.762;23.598;2022-07-29T00:11:33;97412.55;;;20.58;65.18
61359;BME280;47228;46.762;23.598;2022-07-29T00:14:01;97409.21;;;20.56;65.39
61359;BME280;47228;46.762;23.598;2022-07-29T00:16:29;97406.35;;;20.54;65.09
61359;BME280;47228;46.762;23.598;2022-07-29T00:18:57;97409.85;;;20.53;65.07
61359;BME280;47228;46.762;23.598;2022-07-29T00:21:29;97410.60;;;20.50;65.09
61359;BME280;47228;46.762;23.598;2022-07-29T00:23:57;97407.63;;;20.42;65.16
61359;BME280;47228;46.762;23.598;2022-07-29T00:26:25;97407.10;;;20.30;65.39
61359;BME280;47228;46.762;23.598;2022-07-29T00:28:55;97406.02;;;20.24;65.43
61359;BME280;47228;46.762;23.598;2022-07-29T00:31:43;97405.39;;;20.16;65.75
61359;BME280;47228;46.762;23.598;2022-07-29T00:34:12;97402.13;;;20.07;65.67
61359;BME280;47228;46.762;23.598;2022-07-29T00:36:59;97396.89;;;19.97;66.04
61359;BME280;47228;46.762;23.598;2022-07-29T00:39:27;97393.63;;;19.92;66.29
61359;BME280;47228;46.762;23.598;2022-07-29T00:41:55;97396.45;;;19.85;66.38
61359;BME280;47228;46.762;23.598;2022-07-29T00:44:23;97395.23;;;19.76;66.54
61359;BME280;47228;46.762;23.598;2022-07-29T00:46:51;97396.17;;;19.69;66.85
61359;BME280;47228;46.762;23.598;2022-07-29T00:49:19;97394.05;;;19.64;67.02
61359;BME280;47228;46.762;23.598;2022-07-29T00:51:48;97396.11;;;19.58;67.09
61359;BME280;47228;46.762;23.598;2022-07-29T00:54:17;97396.19;;;19.52;67.07
61359;BME280;47228;46.762;23.598;2022-07-29T00:56:46;97396.64;;;19.47;67.47
61359;BME280;47228;46.762;23.598;2022-07-29T00:59:14;97396.56;;;19.43;67.55
61359;BME280;47228;46.762;23.598;2022-07-29T01:01:42;97392.84;;;19.41;67.63
61359;BME280;47228;46.762;23.598;2022-07-29T01:04:10;97390.50;;;19.39;67.60
61359;BME280;47228;46.762;23.598;2022-07-29T01:06:42;97384.91;;;19.39;67.75
61359;BME280;47228;46.762;23.598;2022-07-29T01:09:10;97384.53;;;19.38;67.53
61359;BME280;47228;46.762;23.598;2022-07-29T01:11:39;97383.97;;;19.35;67.78
61359;BME280;47228;46.762;23.598;2022-07-29T01:14:07;97381.46;;;19.30;67.47
61359;BME280;47228;46.762;23.598;2022-07-29T01:16:46;97380.67;;;19.24;67.79
61359;BME280;47228;46.762;23.598;2022-07-29T01:22:07;97387.20;;;19.19;68.07
61359;BME280;47228;46.762;23.598;2022-07-29T01:24:48;97386.62;;;19.19;68.33
61359;BME280;47228;46.762;23.598;2022-07-29T01:27:45;97389.31;;;19.18;68.03
61359;BME280;47228;46.762;23.598;2022-07-29T01:30:16;97385.98;;;19.13;68.28
61359;BME280;47228;46.762;23.598;2022-07-29T01:32:47;97383.45;;;19.11;68.42
61359;BME280;47228;46.762;23.598;2022-07-29T01:35:24;97385.90;;;19.09;68.30
61359;BME280;47228;46.762;23.598;2022-07-29T01:40:33;97386.54;;;19.09;68.64
61359;BME280;47228;46.762;23.598;2022-07-29T01:43:25;97382.60;;;19.07;68.57
61359;BME280;47228;46.762;23.598;2022-07-29T01:46:04;97378.45;;;19.03;68.77
61359;BME280;47228;46.762;23.598;2022-07-29T01:48:47;97381.95;;;19.03;69.04
61359;BME280;47228;46.762;23.598;2022-07-29T01:51:24;97378.12;;;19.02;69.02
61359;BME280;47228;46.762;23.598;2022-07-29T01:54:05;97373.33;;;19.02;69.15
61359;BME280;47228;46.762;23.598;2022-07-29T01:56:36;97379.00;;;19.03;69.28
61359;BME280;47228;46.762;23.598;2022-07-29T01:59:07;97375.36;;;19.01;69.47
61359;BME280;47228;46.762;23.598;2022-07-29T02:01:39;97376.88;;;19.03;69.34
61359;BME280;47228;46.762;23.598;2022-07-29T02:04:10;97372.77;;;19.05;69.51
61359;BME280;47228;46.762;23.598;2022-07-29T02:07:02;97372.19;;;19.05;69.57
61359;BME280;47228;46.762;23.598;2022-07-29T02:09:33;97370.35;;;19.05;69.33
61359;BME280;47228;46.762;23.598;2022-07-29T02:12:03;97366.61;;;19.03;69.31
61359;BME280;47228;46.762;23.598;2022-07-29T02:14:38;97365.20;;;19.01;69.56
61359;BME280;47228;46.762;23.598;2022-07-29T02:17:08;97365.05;;;19.03;69.56
61359;BME280;47228;46.762;23.598;2022-07-29T02:19:39;97363.69;;;19.02;69.65
61359;BME280;47228;46.762;23.598;2022-07-29T02:22:10;97364.83;;;19.03;69.41
61359;BME280;47228;46.762;23.598;2022-07-29T02:24:40;97364.83;;;19.03;69.65
61359;BME280;47228;46.762;23.598;2022-07-29T02:27:10;97365.36;;;19.03;69.49
61359;BME280;47228;46.762;23.598;2022-07-29T02:29:39;97365.80;;;19.03;69.39
61359;BME280;47228;46.762;23.598;2022-07-29T02:32:11;97371.86;;;19.00;69.48
61359;BME280;47228;46.762;23.598;2022-07-29T02:34:42;97368.87;;;18.96;69.71
61359;BME280;47228;46.762;23.598;2022-07-29T02:37:11;97369.91;;;18.92;69.62
61359;BME280;47228;46.762;23.598;2022-07-29T02:39:42;97365.44;;;18.90;69.81
61359;BME280;47228;46.762;23.598;2022-07-29T02:42:15;97364.73;;;18.89;69.85
61359;BME280;47228;46.762;23.598;2022-07-29T02:44:44;97361.64;;;18.86;69.86
61359;BME280;47228;46.762;23.598;2022-07-29T02:47:17;97365.23;;;18.85;69.95
61359;BME280;47228;46.762;23.598;2022-07-29T02:50:04;97361.41;;;18.83;70.02
61359;BME280;47228;46.762;23.598;2022-07-29T02:52:48;97362.50;;;18.79;70.12
61359;BME280;47228;46.762;23.598;2022-07-29T02:55:31;97362.75;;;18.78;70.32
61359;BME280;47228;46.762;23.598;2022-07-29T02:58:05;97365.41;;;18.79;70.57
61359;BME280;47228;46.762;23.598;2022-07-29T03:00:37;97361.77;;;18.81;70.48
61359;BME280;47228;46.762;23.598;2022-07-29T03:03:12;97358.02;;;18.83;70.55
61359;BME280;47228;46.762;23.598;2022-07-29T03:05:41;97358.02;;;18.85;70.52
61359;BME280;47228;46.762;23.598;2022-07-29T03:08:11;97361.20;;;18.86;70.75
61359;BME280;47228;46.762;23.598;2022-07-29T03:10:43;97357.38;;;18.86;70.36
61359;BME280;47228;46.762;23.598;2022-07-29T03:13:12;97361.61;;;18.89;70.83
61359;BME280;47228;46.762;23.598;2022-07-29T03:15:45;97363.02;;;18.91;71.10
61359;BME280;47228;46.762;23.598;2022-07-29T03:18:14;97364.17;;;18.94;71.09
61359;BME280;47228;46.762;23.598;2022-07-29T03:20:43;97362.85;;;18.96;70.91
61359;BME280;47228;46.762;23.598;2022-07-29T03:23:11;97357.65;;;19.00;71.04
61359;BME280;47228;46.762;23.598;2022-07-29T03:25:39;97356.83;;;19.04;71.12
61359;BME280;47228;46.762;23.598;2022-07-29T03:28:07;97359.63;;;19.09;71.29
61359;BME280;47228;46.762;23.598;2022-07-29T03:30:36;97357.94;;;19.13;71.12
61359;BME280;47228;46.762;23.598;2022-07-29T03:33:05;97361.14;;;19.19;71.29
61359;BME280;47228;46.762;23.598;2022-07-29T03:35:40;97362.41;;;19.24;71.09
61359;BME280;47228;46.762;23.598;2022-07-29T03:38:08;97365.69;;;19.29;71.02
61359;BME280;47228;46.762;23.598;2022-07-29T03:40:51;97370.83;;;19.35;71.13
61359;BME280;47228;46.762;23.598;2022-07-29T03:43:20;97373.40;;;19.40;70.91
61359;BME280;47228;46.762;23.598;2022-07-29T03:45:53;97377.23;;;19.45;70.91
61359;BME280;47228;46.762;23.598;2022-07-29T03:48:24;97378.39;;;19.49;71.03
61359;BME280;47228;46.762;23.598;2022-07-29T03:50:54;97378.09;;;19.52;70.83
61359;BME280;47228;46.762;23.598;2022-07-29T03:53:23;97383.98;;;19.54;70.84
61359;BME280;47228;46.762;23.598;2022-07-29T03:55:54;97384.69;;;19.57;70.90
61359;BME280;47228;46.762;23.598;2022-07-29T03:58:26;97388.24;;;19.57;70.85
61359;BME280;47228;46.762;23.598;2022-07-29T04:00:56;97390.19;;;19.58;71.04
61359;BME280;47228;46.762;23.598;2022-07-29T04:03:24;97390.36;;;19.60;70.83
61359;BME280;47228;46.762;23.598;2022-07-29T04:06:01;97387.78;;;19.62;70.74
61359;BME280;47228;46.762;23.598;2022-07-29T04:08:30;97388.34;;;19.63;70.72
61359;BME280;47228;46.762;23.598;2022-07-29T04:10:58;97389.26;;;19.66;70.95
61359;BME280;47228;46.762;23.598;2022-07-29T04:13:27;97392.08;;;19.68;70.96
61359;BME280;47228;46.762;23.598;2022-07-29T04:15:55;97391.23;;;19.71;70.69
61359;BME280;47228;46.762;23.598;2022-07-29T04:18:24;97391.13;;;19.73;70.73
61359;BME280;47228;46.762;23.598;2022-07-29T04:20:52;97381.98;;;19.77;70.74
61359;BME280;47228;46.762;23.598;2022-07-29T04:23:20;97376.07;;;19.80;70.60
61359;BME280;47228;46.762;23.598;2022-07-29T04:25:48;97379.63;;;19.83;70.64
61359;BME280;47228;46.762;23.598;2022-07-29T04:28:16;97380.52;;;19.88;70.44
61359;BME280;47228;46.762;23.598;2022-07-29T04:30:44;97381.50;;;19.90;70.27
61359;BME280;47228;46.762;23.598;2022-07-29T04:33:12;97382.37;;;19.93;70.24
61359;BME280;47228;46.762;23.598;2022-07-29T04:35:40;97380.02;;;19.95;70.10
61359;BME280;47228;46.762;23.598;2022-07-29T04:38:18;97380.02;;;19.97;69.82
61359;BME280;47228;46.762;23.598;2022-07-29T04:40:46;97377.30;;;19.99;69.95
61359;BME280;47228;46.762;23.598;2022-07-29T04:43:16;97379.85;;;20.03;70.07
61359;BME280;47228;46.762;23.598;2022-07-29T04:45:49;97375.17;;;20.05;70.03
61359;BME280;47228;46.762;23.598;2022-07-29T04:48:18;97374.25;;;20.06;69.92
61359;BME280;47228;46.762;23.598;2022-07-29T04:50:49;97372.42;;;20.08;69.90
61359;BME280;47228;46.762;23.598;2022-07-29T04:53:17;97372.37;;;20.10;69.66
61359;BME280;47228;46.762;23.598;2022-07-29T04:55:46;97374.80;;;20.14;69.71
61359;BME280;47228;46.762;23.598;2022-07-29T04:58:14;97374.55;;;20.17;69.55
61359;BME280;47228;46.762;23.598;2022-07-29T05:00:43;97377.85;;;20.20;69.54
61359;BME280;47228;46.762;23.598;2022-07-29T05:03:11;97377.54;;;20.22;69.17
61359;BME280;47228;46.762;23.598;2022-07-29T05:05:40;97378.94;;;20.25;69.39
61359;BME280;47228;46.762;23.598;2022-07-29T05:08:08;97382.23;;;20.27;69.05
61359;BME280;47228;46.762;23.598;2022-07-29T05:10:36;97384.83;;;20.30;69.25
61359;BME280;47228;46.762;23.598;2022-07-29T05:13:06;97390.09;;;20.35;69.26
61359;BME280;47228;46.762;23.598;2022-07-29T05:15:36;97389.91;;;20.39;69.14
61359;BME280;47228;46.762;23.598;2022-07-29T05:18:05;97386.31;;;20.43;68.80
61359;BME280;47228;46.762;23.598;2022-07-29T05:20:33;97386.75;;;20.42;68.56
61359;BME280;47228;46.762;23.598;2022-07-29T05:23:02;97389.60;;;20.42;68.56
61359;BME280;47228;46.762;23.598;2022-07-29T05:25:30;97393.75;;;20.42;68.36
61359;BME280;47228;46.762;23.598;2022-07-29T05:28:11;97396.17;;;20.41;68.54
61359;BME280;47228;46.762;23.598;2022-07-29T05:30:40;97403.36;;;20.41;68.64
61359;BME280;47228;46.762;23.598;2022-07-29T05:33:08;97404.39;;;20.42;68.53
61359;BME280;47228;46.762;23.598;2022-07-29T05:35:56;97407.45;;;20.42;68.44
61359;BME280;47228;46.762;23.598;2022-07-29T05:38:28;97407.84;;;20.42;68.37
61359;BME280;47228;46.762;23.598;2022-07-29T05:40:57;97408.38;;;20.44;68.05
61359;BME280;47228;46.762;23.598;2022-07-29T05:43:28;97407.84;;;20.43;68.07
61359;BME280;47228;46.762;23.598;2022-07-29T05:45:56;97406.91;;;20.44;68.50
61359;BME280;47228;46.762;23.598;2022-07-29T05:48:25;97406.08;;;20.47;68.46
61359;BME280;47228;46.762;23.598;2022-07-29T05:50:53;97408.50;;;20.50;68.43
61359;BME280;47228;46.762;23.598;2022-07-29T05:53:22;97405.17;;;20.55;68.10
61359;BME280;47228;46.762;23.598;2022-07-29T05:55:50;97400.63;;;20.57;67.71
61359;BME280;47228;46.762;23.598;2022-07-29T05:58:19;97395.34;;;20.58;67.92
61359;BME280;47228;46.762;23.598;2022-07-29T06:00:48;97402.54;;;20.61;67.75
61359;BME280;47228;46.762;23.598;2022-07-29T06:03:16;97399.88;;;20.64;68.03
61359;BME280;47228;46.762;23.598;2022-07-29T06:05:44;97398.98;;;20.69;67.87
61359;BME280;47228;46.762;23.598;2022-07-29T06:08:12;97396.55;;;20.73;67.83
61359;BME280;47228;46.762;23.598;2022-07-29T06:10:40;97402.48;;;20.78;67.56
61359;BME280;47228;46.762;23.598;2022-07-29T06:13:09;97402.77;;;20.85;67.63
61359;BME280;47228;46.762;23.598;2022-07-29T06:15:37;97405.23;;;20.92;67.60
61359;BME280;47228;46.762;23.598;2022-07-29T06:18:05;97402.48;;;20.98;67.49
61359;BME280;47228;46.762;23.598;2022-07-29T06:20:37;97401.82;;;21.07;67.29
61359;BME280;47228;46.762;23.598;2022-07-29T06:23:06;97400.52;;;21.15;67.46
61359;BME280;47228;46.762;23.598;2022-07-29T06:25:34;97404.99;;;21.22;66.99
61359;BME280;47228;46.762;23.598;2022-07-29T06:28:05;97410.23;;;21.28;66.80
61359;BME280;47228;46.762;23.598;2022-07-29T06:30:34;97409.26;;;21.34;66.96
61359;BME280;47228;46.762;23.598;2022-07-29T06:33:02;97401.94;;;21.42;66.63
61359;BME280;47228;46.762;23.598;2022-07-29T06:35:34;97402.89;;;21.48;66.82
61359;BME280;47228;46.762;23.598;2022-07-29T06:38:09;97398.83;;;21.55;66.64
61359;BME280;47228;46.762;23.598;2022-07-29T06:40:58;97399.84;;;21.64;66.64
61359;BME280;47228;46.762;23.598;2022-07-29T06:43:35;97395.77;;;21.71;66.49
61359;BME280;47228;46.762;23.598;2022-07-29T06:46:21;97397.02;;;21.81;66.44
61359;BME280;47228;46.762;23.598;2022-07-29T06:48:50;97393.52;;;21.89;66.15
61359;BME280;47228;46.762;23.598;2022-07-29T06:51:20;97394.35;;;21.97;66.05
61359;BME280;47228;46.762;23.598;2022-07-29T06:53:51;97394.25;;;22.07;65.85
61359;BME280;47228;46.762;23.598;2022-07-29T06:56:30;97392.91;;;22.14;65.73
61359;BME280;47228;46.762;23.598;2022-07-29T06:59:07;97393.38;;;22.21;65.78
61359;BME280;47228;46.762;23.598;2022-07-29T07:01:39;97390.30;;;22.27;65.40
61359;BME280;47228;46.762;23.598;2022-07-29T07:04:08;97392.77;;;22.30;65.05
61359;BME280;47228;46.762;23.598;2022-07-29T07:06:36;97392.39;;;22.33;65.21
61359;BME280;47228;46.762;23.598;2022-07-29T07:09:05;97390.79;;;22.39;65.41
61359;BME280;47228;46.762;23.598;2022-07-29T07:11:33;97390.52;;;22.46;65.47
61359;BME280;47228;46.762;23.598;2022-07-29T07:14:01;97390.96;;;22.55;65.48
61359;BME280;47228;46.762;23.598;2022-07-29T07:16:31;97382.42;;;22.65;65.09
61359;BME280;47228;46.762;23.598;2022-07-29T07:19:00;97381.80;;;22.75;65.30
61359;BME280;47228;46.762;23.598;2022-07-29T07:21:28;97383.05;;;22.88;65.20
61359;BME280;47228;46.762;23.598;2022-07-29T07:23:58;97381.96;;;23.01;64.93
61359;BME280;47228;46.762;23.598;2022-07-29T07:26:26;97377.19;;;23.15;64.52
61359;BME280;47228;46.762;23.598;2022-07-29T07:28:55;97374.73;;;23.28;64.30
61359;BME280;47228;46.762;23.598;2022-07-29T07:31:23;97372.11;;;23.43;64.06
61359;BME280;47228;46.762;23.598;2022-07-29T07:33:52;97364.48;;;23.54;63.33
61359;BME280;47228;46.762;23.598;2022-07-29T07:36:21;97368.44;;;23.62;63.38
61359;BME280;47228;46.762;23.598;2022-07-29T07:39:21;97368.53;;;23.79;63.44
61359;BME280;47228;46.762;23.598;2022-07-29T07:41:51;97367.27;;;23.92;62.77
61359;BME280;47228;46.762;23.598;2022-07-29T07:44:22;97374.20;;;24.05;62.59
61359;BME280;47228;46.762;23.598;2022-07-29T07:46:50;97366.48;;;24.18;62.11
61359;BME280;47228;46.762;23.598;2022-07-29T07:49:19;97368.11;;;24.29;61.57
61359;BME280;47228;46.762;23.598;2022-07-29T07:51:47;97368.96;;;24.42;61.47
61359;BME280;47228;46.762;23.598;2022-07-29T07:54:17;97368.80;;;24.55;60.91
61359;BME280;47228;46.762;23.598;2022-07-29T07:56:47;97364.63;;;24.67;60.20
61359;BME280;47228;46.762;23.598;2022-07-29T07:59:20;97365.20;;;24.78;59.54
61359;BME280;47228;46.762;23.598;2022-07-29T08:01:48;97362.49;;;24.90;59.49
61359;BME280;47228;46.762;23.598;2022-07-29T08:04:23;97360.86;;;25.03;59.18
61359;BME280;47228;46.762;23.598;2022-07-29T08:06:55;97361.71;;;25.17;58.73
61359;BME280;47228;46.762;23.598;2022-07-29T08:09:25;97362.72;;;25.27;58.30
61359;BME280;47228;46.762;23.598;2022-07-29T08:11:57;97360.94;;;25.39;57.74
61359;BME280;47228;46.762;23.598;2022-07-29T08:14:26;97363.34;;;25.50;57.49
61359;BME280;47228;46.762;23.598;2022-07-29T08:16:54;97365.27;;;25.60;57.22
61359;BME280;47228;46.762;23.598;2022-07-29T08:19:22;97362.61;;;25.72;56.73
61359;BME280;47228;46.762;23.598;2022-07-29T08:21:51;97371.61;;;25.85;56.55
61359;BME280;47228;46.762;23.598;2022-07-29T08:24:21;97367.79;;;26.01;56.21
61359;BME280;47228;46.762;23.598;2022-07-29T08:27:10;97371.61;;;26.18;56.06
61359;BME280;47228;46.762;23.598;2022-07-29T08:29:59;97370.33;;;26.36;55.20
61359;BME280;47228;46.762;23.598;2022-07-29T08:32:27;97366.08;;;26.50;54.89
61359;BME280;47228;46.762;23.598;2022-07-29T08:35:16;97365.93;;;26.61;53.95
61359;BME280;47228;46.762;23.598;2022-07-29T08:37:43;97365.30;;;26.65;53.30
61359;BME280;47228;46.762;23.598;2022-07-29T08:40:11;97363.56;;;26.69;53.26
61359;BME280;47228;46.762;23.598;2022-07-29T08:42:39;97368.22;;;26.75;53.26
61359;BME280;47228;46.762;23.598;2022-07-29T08:45:08;97368.82;;;26.82;53.17
61359;BME280;47228;46.762;23.598;2022-07-29T08:47:36;97367.98;;;26.89;52.80
61359;BME280;47228;46.762;23.598;2022-07-29T08:50:08;97366.83;;;26.95;52.16
61359;BME280;47228;46.762;23.598;2022-07-29T08:52:37;97363.44;;;27.05;52.03
61359;BME280;47228;46.762;23.598;2022-07-29T08:55:05;97365.69;;;27.13;52.07
61359;BME280;47228;46.762;23.598;2022-07-29T08:57:34;97359.82;;;27.23;51.55
61359;BME280;47228;46.762;23.598;2022-07-29T09:00:04;97359.15;;;27.33;51.53
61359;BME280;47228;46.762;23.598;2022-07-29T09:02:41;97355.13;;;27.45;51.34
61359;BME280;47228;46.762;23.598;2022-07-29T09:05:14;97357.19;;;27.56;50.64
61359;BME280;47228;46.762;23.598;2022-07-29T09:07:43;97358.23;;;27.67;50.29
61359;BME280;47228;46.762;23.598;2022-07-29T09:10:12;97359.95;;;27.74;49.48
61359;BME280;47228;46.762;23.598;2022-07-29T09:12:39;97362.14;;;27.79;49.65
61359;BME280;47228;46.762;23.598;2022-07-29T09:15:08;97359.33;;;27.89;49.65
61359;BME280;47228;46.762;23.598;2022-07-29T09:17:42;97352.10;;;28.02;49.67
61359;BME280;47228;46.762;23.598;2022-07-29T09:20:12;97351.70;;;28.15;49.51
61359;BME280;47228;46.762;23.598;2022-07-29T09:22:40;97347.13;;;28.26;48.72
61359;BME280;47228;46.762;23.598;2022-07-29T09:25:11;97348.21;;;28.36;48.84
61359;BME280;47228;46.762;23.598;2022-07-29T09:27:39;97346.19;;;28.43;48.11
61359;BME280;47228;46.762;23.598;2022-07-29T09:30:09;97345.32;;;28.46;47.94
61359;BME280;47228;46.762;23.598;2022-07-29T09:32:54;97335.80;;;28.46;47.59
61359;BME280;47228;46.762;23.598;2022-07-29T09:35:23;97337.31;;;28.45;47.37
61359;BME280;47228;46.762;23.598;2022-07-29T09:37:51;97334.20;;;28.47;47.39
61359;BME280;47228;46.762;23.598;2022-07-29T09:40:21;97332.23;;;28.53;47.39
61359;BME280;47228;46.762;23.598;2022-07-29T09:42:49;97330.63;;;28.58;47.36
61359;BME280;47228;46.762;23.598;2022-07-29T09:47:56;97330.05;;;28.74;46.20
61359;BME280;47228;46.762;23.598;2022-07-29T09:50:36;97328.50;;;28.78;46.38
61359;BME280;47228;46.762;23.598;2022-07-29T09:53:04;97327.66;;;28.84;46.31
61359;BME280;47228;46.762;23.598;2022-07-29T09:55:32;97324.54;;;28.88;45.71
61359;BME280;47228;46.762;23.598;2022-07-29T09:58:17;97321.80;;;28.91;45.77
61359;BME280;47228;46.762;23.598;2022-07-29T10:00:45;97316.13;;;28.97;45.74
61359;BME280;47228;46.762;23.598;2022-07-29T10:03:14;97312.54;;;29.07;45.55
61359;BME280;47228;46.762;23.598;2022-07-29T10:05:43;97309.48;;;29.16;44.87
61359;BME280;47228;46.762;23.598;2022-07-29T10:08:11;97305.43;;;29.18;44.58
61359;BME280;47228;46.762;23.598;2022-07-29T10:10:41;97298.59;;;29.17;44.55
61359;BME280;47228;46.762;23.598;2022-07-29T10:13:12;97298.65;;;29.15;44.42
61359;BME280;47228;46.762;23.598;2022-07-29T10:15:43;97301.85;;;29.09;44.66
61359;BME280;47228;46.762;23.598;2022-07-29T10:18:13;97293.55;;;29.06;44.43
61359;BME280;47228;46.762;23.598;2022-07-29T10:20:45;97291.69;;;29.11;44.55
61359;BME280;47228;46.762;23.598;2022-07-29T10:23:13;97288.23;;;29.20;44.72
61359;BME280;47228;46.762;23.598;2022-07-29T10:25:41;97288.83;;;29.35;44.24
61359;BME280;47228;46.762;23.598;2022-07-29T10:28:13;97289.82;;;29.50;43.80
61359;BME280;47228;46.762;23.598;2022-07-29T10:30:43;97290.51;;;29.62;43.18
61359;BME280;47228;46.762;23.598;2022-07-29T10:44:17;97267.23;;;29.22;43.02
61359;BME280;47228;46.762;23.598;2022-07-29T10:46:50;97265.17;;;29.12;42.74
61359;BME280;47228;46.762;23.598;2022-07-29T10:49:20;97261.33;;;29.02;42.91
61359;BME280;47228;46.762;23.598;2022-07-29T10:51:55;97254.12;;;28.92;43.06
61359;BME280;47228;46.762;23.598;2022-07-29T10:54:38;97251.85;;;28.82;43.37
61359;BME280;47228;46.762;23.598;2022-07-29T10:57:17;97255.80;;;28.74;43.28
61359;BME280;47228;46.762;23.598;2022-07-29T11:05:10;97285.02;;;28.53;43.86
61359;BME280;47228;46.762;23.598;2022-07-29T11:07:39;97288.36;;;28.50;43.60
61359;BME280;47228;46.762;23.598;2022-07-29T11:15:12;97279.39;;;28.39;44.13
61359;BME280;47228;46.762;23.598;2022-07-29T11:20:40;97267.48;;;28.29;44.21
61359;BME280;47228;46.762;23.598;2022-07-29T11:23:28;97267.40;;;28.26;44.67
61359;BME280;47228;46.762;23.598;2022-07-29T11:26:14;97274.15;;;28.21;44.58
61359;BME280;47228;46.762;23.598;2022-07-29T11:29:26;97275.44;;;28.15;44.48
61359;BME280;47228;46.762;23.598;2022-07-29T11:31:55;97284.00;;;28.10;44.52
61359;BME280;47228;46.762;23.598;2022-07-29T11:34:42;97284.64;;;28.03;44.49
61359;BME280;47228;46.762;23.598;2022-07-29T11:40:07;97277.00;;;27.94;44.94
61359;BME280;47228;46.762;23.598;2022-07-29T11:47:51;97274.61;;;27.78;45.01
61359;BME280;47228;46.762;23.598;2022-07-29T11:50:28;97269.23;;;27.72;44.79
61359;BME280;47228;46.762;23.598;2022-07-29T11:52:56;97262.01;;;27.68;45.04
61359;BME280;47228;46.762;23.598;2022-07-29T11:55:24;97257.38;;;27.64;45.01
61359;BME280;47228;46.762;23.598;2022-07-29T11:58:00;97258.66;;;27.60;45.20
61359;BME280;47228;46.762;23.598;2022-07-29T12:00:31;97258.70;;;27.57;44.59
61359;BME280;47228;46.762;23.598;2022-07-29T12:03:02;97257.95;;;27.55;44.51
61359;BME280;47228;46.762;23.598;2022-07-29T12:08:05;97253.13;;;27.50;44.95
61359;BME280;47228;46.762;23.598;2022-07-29T12:10:39;97257.55;;;27.47;44.63
61359;BME280;47228;46.762;23.598;2022-07-29T12:13:08;97263.23;;;27.46;44.07
61359;BME280;47228;46.762;23.598;2022-07-29T12:15:37;97266.42;;;27.43;45.31
61359;BME280;47228;46.762;23.598;2022-07-29T12:18:14;97267.12;;;27.37;44.65
61359;BME280;47228;46.762;23.598;2022-07-29T12:20:45;97267.48;;;27.30;45.37
61359;BME280;47228;46.762;23.598;2022-07-29T12:23:13;97272.65;;;27.23;45.94
61359;BME280;47228;46.762;23.598;2022-07-29T12:25:43;97275.11;;;27.14;46.96
61359;BME280;47228;46.762;23.598;2022-07-29T12:28:16;97275.52;;;27.03;47.86
61359;BME280;47228;46.762;23.598;2022-07-29T12:30:54;97270.38;;;26.92;48.70
61359;BME280;47228;46.762;23.598;2022-07-29T12:33:23;97268.84;;;26.78;49.47
61359;BME280;47228;46.762;23.598;2022-07-29T12:35:54;97263.39;;;26.65;49.66
61359;BME280;47228;46.762;23.598;2022-07-29T12:38:34;97254.31;;;26.54;50.40
61359;BME280;47228;46.762;23.598;2022-07-29T12:41:03;97247.45;;;26.42;50.69
61359;BME280;47228;46.762;23.598;2022-07-29T12:43:31;97239.25;;;26.25;51.07
61359;BME280;47228;46.762;23.598;2022-07-29T12:46:10;97239.63;;;26.09;51.45
61359;BME280;47228;46.762;23.598;2022-07-29T12:48:40;97238.04;;;25.90;51.94
61359;BME280;47228;46.762;23.598;2022-07-29T12:51:08;97231.59;;;25.77;52.67
61359;BME280;47228;46.762;23.598;2022-07-29T12:53:38;97223.50;;;25.63;53.50
61359;BME280;47228;46.762;23.598;2022-07-29T12:56:06;97223.80;;;25.47;53.98
61359;BME280;47228;46.762;23.598;2022-07-29T12:59:13;97222.80;;;25.28;54.87
61359;BME280;47228;46.762;23.598;2022-07-29T13:01:41;97224.20;;;25.06;55.90
61359;BME280;47228;46.762;23.598;2022-07-29T13:04:10;97228.60;;;24.89;56.98
61359;BME280;47228;46.762;23.598;2022-07-29T13:06:42;97239.44;;;24.74;57.51
61359;BME280;47228;46.762;23.598;2022-07-29T13:09:19;97239.36;;;24.59;57.72
61359;BME280;47228;46.762;23.598;2022-07-29T13:11:51;97241.30;;;24.46;57.84
61359;BME280;47228;46.762;23.598;2022-07-29T13:19:35;97228.12;;;24.05;58.79
61359;BME280;47228;46.762;23.598;2022-07-29T13:22:04;97225.42;;;23.94;59.27
61359;BME280;47228;46.762;23.598;2022-07-29T13:24:33;97221.36;;;23.82;59.45
61359;BME280;47228;46.762;23.598;2022-07-29T13:27:01;97225.44;;;23.73;59.64
61359;BME280;47228;46.762;23.598;2022-07-29T13:29:32;97221.56;;;23.67;59.87
61359;BME280;47228;46.762;23.598;2022-07-29T13:32:00;97221.86;;;23.65;60.37
61359;BME280;47228;46.762;23.598;2022-07-29T13:34:28;97219.30;;;23.63;60.68
61359;BME280;47228;46.762;23.598;2022-07-29T13:36:56;97223.53;;;23.57;60.92
61359;BME280;47228;46.762;23.598;2022-07-29T13:39:24;97229.57;;;23.52;61.18
61359;BME280;47228;46.762;23.598;2022-07-29T13:41:52;97237.52;;;23.49;61.72
61359;BME280;47228;46.762;23.598;2022-07-29T13:44:22;97241.14;;;23.46;61.74
61359;BME280;47228;46.762;23.598;2022-07-29T13:46:50;97238.42;;;23.42;62.15
61359;BME280;47228;46.762;23.598;2022-07-29T13:49:18;97245.85;;;23.38;62.28
61359;BME280;47228;46.762;23.598;2022-07-29T13:51:46;97249.63;;;23.34;62.78
61359;BME280;47228;46.762;23.598;2022-07-29T13:54:14;97254.34;;;23.28;63.16
61359;BME280;47228;46.762;23.598;2022-07-29T13:56:43;97254.17;;;23.18;63.69
61359;BME280;47228;46.762;23.598;2022-07-29T13:59:12;97257.52;;;23.03;64.12
61359;BME280;47228;46.762;23.598;2022-07-29T14:01:40;97261.58;;;22.89;64.74